Time;durP1;ratioP1;P1;durP2;ratioP2;P2;SDS_P1;SDS_P2;PMS_P1;PMS_P2;Temp;Humidity;BMP_temperature;BMP_pressure;BME280_temperature;BME280_humidity;BME280_pressure;Samples;Min_cycle;Max_cycle;Signal;HPM_P1;HPM_P2
2022/11/20 00:02:08;;;;;;;;;;;19.10;66.60;;;;;;5041311;28;837;-67
2022/11/20 00:04:33;;;;;;;;;;;19.10;66.60;;;;;;5038197;28;822;-68
2022/11/20 00:06:59;;;;;;;;;;;19.10;66.60;;;;;;5038096;28;1307;-67
2022/11/20 00:09:24;;;;;;;;;;;19.10;66.60;;;;;;5043801;28;1902;-67
2022/11/20 00:11:50;;;;;;;;;;;19.00;66.50;;;;;;5039605;28;879;-68
2022/11/20 00:14:15;;;;;;;;;;;19.00;66.60;;;;;;5039065;28;1527;-68
2022/11/20 00:16:41;;;;;;;;;;;19.00;66.60;;;;;;5037515;28;1299;-68
2022/11/20 00:19:06;;;;;;;;;;;19.00;66.60;;;;;;5039713;28;880;-68
2022/11/20 00:21:31;;;;;;;;;;;19.00;66.60;;;;;;5039428;28;1022;-68
2022/11/20 00:23:57;;;;;;;;;;;19.00;66.60;;;;;;5036983;28;792;-68
2022/11/20 00:26:23;;;;;;;;;;;19.00;66.60;;;;;;5036220;28;1340;-69
2022/11/20 00:28:52;;;;;;;;;;;19.00;66.70;;;;;;5024017;28;1906;-69
2022/11/20 00:31:18;;;;;;;;;;;19.00;66.70;;;;;;5037383;28;871;-69
2022/11/20 00:33:43;;;;;;;;;;;19.00;66.70;;;;;;5042477;28;965;-69
2022/11/20 00:36:10;;;;;;;;;;;19.00;66.70;;;;;;5038386;28;916;-69
2022/11/20 00:38:35;;;;;;;;;;;19.00;66.70;;;;;;5030476;28;1270;-69
2022/11/20 00:41:01;;;;;;;;;;;19.00;66.80;;;;;;5037683;28;879;-69
2022/11/20 00:43:27;;;;;;;;;;;19.00;66.80;;;;;;5036640;28;880;-68
2022/11/20 00:45:59;;;;;;;;;;;19.00;66.80;;;;;;5036987;28;975;-68
2022/11/20 00:48:24;;;;;;;;;;;19.00;66.80;;;;;;5041702;28;1961;-69
2022/11/20 00:50:50;;;;;;;;;;;19.00;66.80;;;;;;5038074;28;1038;-68
2022/11/20 00:53:15;;;;;;;;;;;19.00;66.80;;;;;;5038750;28;785;-69
2022/11/20 00:55:41;;;;;;;;;;;19.00;66.90;;;;;;5036495;28;797;-69
2022/11/20 00:58:06;;;;;;;;;;;19.00;66.80;;;;;;5042536;28;1280;-68
2022/11/20 01:00:32;;;;;;;;;;;19.00;66.90;;;;;;5036275;28;790;-68
2022/11/20 01:02:57;;;;;;;;;;;19.00;66.80;;;;;;5040549;28;899;-69
2022/11/20 01:05:23;;;;;;;;;;;19.00;66.80;;;;;;5023693;28;1074;-69
2022/11/20 01:07:48;;;;;;;;;;;19.00;66.90;;;;;;5037049;28;1960;-69
2022/11/20 01:10:13;;;;;;;;;;;19.00;66.90;;;;;;5037980;28;891;-69
2022/11/20 01:12:39;;;;;;;;;;;19.00;66.90;;;;;;5040021;28;927;-69
2022/11/20 01:15:04;;;;;;;;;;;19.00;66.90;;;;;;5037951;28;1455;-69
2022/11/20 01:17:30;;;;;;;;;;;19.00;66.90;;;;;;5037764;28;1295;-69
2022/11/20 01:19:56;;;;;;;;;;;19.00;66.90;;;;;;5037968;28;922;-68
2022/11/20 01:22:21;;;;;;;;;;;19.00;66.90;;;;;;5039237;28;1049;-68
2022/11/20 01:24:47;;;;;;;;;;;18.90;66.90;;;;;;5037662;28;838;-68
2022/11/20 01:27:12;;;;;;;;;;;19.00;66.90;;;;;;5034628;28;1311;-68
2022/11/20 01:29:38;;;;;;;;;;;19.00;67.00;;;;;;5038268;28;1963;-68
2022/11/20 01:32:03;;;;;;;;;;;18.90;66.90;;;;;;5036221;28;860;-68
2022/11/20 01:34:29;;;;;;;;;;;19.00;67.00;;;;;;5036168;28;970;-68
2022/11/20 01:36:54;;;;;;;;;;;18.90;66.90;;;;;;5037375;28;1276;-68
2022/11/20 01:39:21;;;;;;;;;;;18.90;66.90;;;;;;5036574;28;844;-68
2022/11/20 01:44:50;;;;;;;;;;;18.90;67.00;;;;;;5030381;28;1052;-68
2022/11/20 01:47:25;;;;;;;;;;;18.90;67.00;;;;;;5022296;28;1334;-69
2022/11/20 01:49:56;;;;;;;;;;;18.90;66.90;;;;;;5035687;28;1887;-69
2022/11/20 01:52:26;;;;;;;;;;;18.90;67.00;;;;;;5038716;28;911;-69
2022/11/20 01:54:53;;;;;;;;;;;18.90;67.00;;;;;;5029895;28;808;-68
2022/11/20 01:57:20;;;;;;;;;;;18.90;67.00;;;;;;5020010;28;1648;-69
2022/11/20 01:59:47;;;;;;;;;;;18.90;67.00;;;;;;5021224;28;1050;-69
2022/11/20 02:02:13;;;;;;;;;;;18.90;67.00;;;;;;5024243;28;1058;-68
2022/11/20 02:04:38;;;;;;;;;;;18.90;67.00;;;;;;5023561;28;881;-69
2022/11/20 02:07:04;;;;;;;;;;;18.90;67.00;;;;;;5036262;28;1257;-69
2022/11/20 02:09:30;;;;;;;;;;;18.90;67.00;;;;;;5028863;28;1992;-69
2022/11/20 02:11:55;;;;;;;;;;;18.90;67.10;;;;;;5035618;28;990;-68
2022/11/20 02:14:21;;;;;;;;;;;18.90;67.00;;;;;;5020384;28;1473;-68
2022/11/20 02:16:47;;;;;;;;;;;18.90;67.00;;;;;;5037603;28;1213;-69
2022/11/20 02:19:14;;;;;;;;;;;18.90;67.00;;;;;;5018000;28;885;-69
2022/11/20 02:21:40;;;;;;;;;;;18.90;67.00;;;;;;5039762;28;809;-69
2022/11/20 02:24:07;;;;;;;;;;;18.90;67.10;;;;;;5018995;28;807;-68
2022/11/20 02:26:34;;;;;;;;;;;18.90;67.10;;;;;;5036085;28;1315;-68
2022/11/20 02:29:00;;;;;;;;;;;18.90;67.10;;;;;;5038003;28;1999;-68
2022/11/20 02:31:26;;;;;;;;;;;18.90;67.00;;;;;;5040172;28;883;-68
2022/11/20 02:33:55;;;;;;;;;;;18.90;67.00;;;;;;5039208;28;1062;-69
2022/11/20 02:36:21;;;;;;;;;;;18.90;67.00;;;;;;5038192;28;825;-68
2022/11/20 02:38:46;;;;;;;;;;;18.90;67.10;;;;;;5029893;28;1312;-68
2022/11/20 02:41:11;;;;;;;;;;;18.90;67.10;;;;;;5036979;28;788;-68
2022/11/20 02:43:37;;;;;;;;;;;18.90;67.10;;;;;;5035874;28;1197;-68
2022/11/20 02:46:02;;;;;;;;;;;18.90;67.10;;;;;;5039234;28;880;-68
2022/11/20 02:48:28;;;;;;;;;;;18.90;67.10;;;;;;5036268;28;1965;-69
2022/11/20 02:50:53;;;;;;;;;;;18.90;67.10;;;;;;5040495;28;872;-68
2022/11/20 02:53:19;;;;;;;;;;;18.80;67.10;;;;;;5039595;28;1384;-68
2022/11/20 02:55:44;;;;;;;;;;;18.80;67.00;;;;;;5038502;28;812;-68
2022/11/20 02:58:10;;;;;;;;;;;18.90;67.10;;;;;;5041947;28;1287;-69
2022/11/20 03:00:35;;;;;;;;;;;18.90;67.10;;;;;;5021284;28;831;-69
2022/11/20 03:03:01;;;;;;;;;;;18.80;67.10;;;;;;5041841;28;803;-69
2022/11/20 03:05:26;;;;;;;;;;;18.90;67.10;;;;;;5042344;28;1018;-69
2022/11/20 03:07:52;;;;;;;;;;;18.80;67.10;;;;;;5037827;28;1910;-69
2022/11/20 03:10:17;;;;;;;;;;;18.80;67.10;;;;;;5039213;28;1408;-68
2022/11/20 03:12:43;;;;;;;;;;;18.80;67.10;;;;;;5041033;28;1190;-69
2022/11/20 03:15:08;;;;;;;;;;;18.80;67.10;;;;;;5040322;28;1401;-69
2022/11/20 03:17:34;;;;;;;;;;;18.80;67.10;;;;;;5030291;28;1221;-69
2022/11/20 03:20:00;;;;;;;;;;;18.80;67.10;;;;;;5037972;28;941;-69
2022/11/20 03:22:25;;;;;;;;;;;18.80;67.10;;;;;;5041207;28;1404;-69
2022/11/20 03:24:51;;;;;;;;;;;18.80;67.10;;;;;;5024953;28;1356;-69
2022/11/20 03:27:17;;;;;;;;;;;18.80;67.10;;;;;;5041912;28;1279;-68
2022/11/20 03:29:42;;;;;;;;;;;18.80;67.10;;;;;;5040467;28;1906;-69
2022/11/20 03:32:08;;;;;;;;;;;18.80;67.10;;;;;;5026153;28;880;-69
2022/11/20 03:34:33;;;;;;;;;;;18.80;67.10;;;;;;5041121;28;947;-69
2022/11/20 03:36:59;;;;;;;;;;;18.80;67.20;;;;;;5038168;28;1355;-68
2022/11/20 03:39:24;;;;;;;;;;;18.80;67.20;;;;;;5041411;28;1290;-69
2022/11/20 03:41:50;;;;;;;;;;;18.80;67.20;;;;;;5040072;28;1500;-69
2022/11/20 03:44:15;;;;;;;;;;;18.80;67.20;;;;;;5039272;28;1018;-70
2022/11/20 03:46:40;;;;;;;;;;;18.80;67.10;;;;;;5037991;28;1292;-70
2022/11/20 03:49:06;;;;;;;;;;;18.80;67.10;;;;;;5042927;28;1898;-69
2022/11/20 03:51:32;;;;;;;;;;;18.80;67.10;;;;;;5028068;28;1377;-68
2022/11/20 03:53:58;;;;;;;;;;;18.80;67.10;;;;;;5025074;28;1353;-68
2022/11/20 03:56:25;;;;;;;;;;;18.80;67.10;;;;;;5041333;28;1799;-67
2022/11/20 03:58:50;;;;;;;;;;;18.80;67.10;;;;;;5041805;28;1401;-69
2022/11/20 04:01:16;;;;;;;;;;;18.80;67.10;;;;;;5025248;28;1311;-69
2022/11/20 04:03:42;;;;;;;;;;;18.90;67.10;;;;;;5042065;28;1438;-68
2022/11/20 04:06:11;;;;;;;;;;;18.80;67.00;;;;;;5030336;28;1641;-68
2022/11/20 04:08:37;;;;;;;;;;;18.90;67.00;;;;;;5040626;28;1902;-69
2022/11/20 04:11:09;;;;;;;;;;;18.90;67.00;;;;;;5042349;28;1216;-69
2022/11/20 04:13:34;;;;;;;;;;;18.90;67.00;;;;;;5040056;28;1354;-69
2022/11/20 04:15:59;;;;;;;;;;;18.90;66.90;;;;;;5038962;28;1295;-69
2022/11/20 04:18:25;;;;;;;;;;;18.90;67.00;;;;;;5043716;28;1508;-68
2022/11/20 04:20:50;;;;;;;;;;;18.80;66.90;;;;;;5043320;28;2249;-68
2022/11/20 04:23:16;;;;;;;;;;;18.90;67.00;;;;;;5039195;28;1209;-69
2022/11/20 04:25:41;;;;;;;;;;;18.90;66.90;;;;;;5040700;28;943;-69
2022/11/20 04:28:07;;;;;;;;;;;18.90;66.90;;;;;;5038425;28;1961;-69
2022/11/20 04:30:32;;;;;;;;;;;18.90;67.00;;;;;;5039695;28;888;-69
2022/11/20 04:32:58;;;;;;;;;;;18.90;67.00;;;;;;5040278;28;901;-69
2022/11/20 04:35:23;;;;;;;;;;;18.90;66.90;;;;;;5036871;28;859;-68
2022/11/20 04:37:51;;;;;;;;;;;18.90;67.00;;;;;;5034908;28;1276;-68
2022/11/20 04:40:16;;;;;;;;;;;18.90;67.00;;;;;;5042056;28;832;-69
2022/11/20 04:42:41;;;;;;;;;;;18.90;67.00;;;;;;5037030;28;887;-68
2022/11/20 04:45:07;;;;;;;;;;;18.90;67.00;;;;;;5039083;28;982;-68
2022/11/20 04:47:33;;;;;;;;;;;18.90;66.90;;;;;;5038903;28;1244;-68
2022/11/20 04:49:58;;;;;;;;;;;18.80;66.90;;;;;;5039847;28;1942;-68
2022/11/20 04:52:23;;;;;;;;;;;18.80;66.90;;;;;;5037647;28;1006;-68
2022/11/20 04:54:52;;;;;;;;;;;18.80;66.90;;;;;;5043691;28;855;-68
2022/11/20 04:57:18;;;;;;;;;;;18.80;66.90;;;;;;5039541;28;1264;-68
2022/11/20 04:59:43;;;;;;;;;;;18.80;67.70;;;;;;5039468;28;847;-68
2022/11/20 05:02:09;;;;;;;;;;;18.90;67.00;;;;;;5038714;28;843;-68
2022/11/20 05:04:34;;;;;;;;;;;18.80;66.90;;;;;;5033315;28;820;-68
2022/11/20 05:07:00;;;;;;;;;;;18.80;67.00;;;;;;5038122;28;1691;-68
2022/11/20 05:09:25;;;;;;;;;;;18.80;67.00;;;;;;5040828;28;1957;-68
2022/11/20 05:11:50;;;;;;;;;;;18.80;67.00;;;;;;5037749;28;1006;-69
2022/11/20 05:14:16;;;;;;;;;;;18.80;66.90;;;;;;5037268;28;1481;-69
2022/11/20 05:16:41;;;;;;;;;;;18.90;66.90;;;;;;5037062;28;1586;-69
2022/11/20 05:19:07;;;;;;;;;;;18.90;66.90;;;;;;5038468;28;966;-69
2022/11/20 05:21:32;;;;;;;;;;;18.90;66.70;;;;;;5037199;28;882;-69
2022/11/20 05:23:58;;;;;;;;;;;19.00;66.70;;;;;;5037162;28;843;-69
2022/11/20 05:26:23;;;;;;;;;;;19.00;66.60;;;;;;5033994;28;1352;-70
2022/11/20 05:28:49;;;;;;;;;;;19.00;66.40;;;;;;5035563;28;1969;-69
2022/11/20 05:31:15;;;;;;;;;;;19.10;66.40;;;;;;5020141;28;788;-69
2022/11/20 05:33:41;;;;;;;;;;;19.10;66.30;;;;;;5037254;28;860;-69
2022/11/20 05:36:07;;;;;;;;;;;19.10;66.10;;;;;;5039504;28;816;-68
2022/11/20 05:38:32;;;;;;;;;;;19.20;66.10;;;;;;5034672;28;1278;-68
2022/11/20 05:41:05;;;;;;;;;;;19.20;66.00;;;;;;5039023;28;856;-68
2022/11/20 05:43:37;;;;;;;;;;;19.20;65.90;;;;;;5015741;28;919;-68
2022/11/20 05:46:02;;;;;;;;;;;19.20;65.80;;;;;;5036005;28;1023;-68
2022/11/20 05:48:28;;;;;;;;;;;19.20;65.80;;;;;;5035097;28;1898;-68
2022/11/20 05:50:53;;;;;;;;;;;19.20;65.70;;;;;;5038852;28;886;-71
2022/11/20 05:53:19;;;;;;;;;;;19.30;65.70;;;;;;5032665;28;1252;-68
2022/11/20 05:55:44;;;;;;;;;;;19.30;65.60;;;;;;5030430;28;1980;-70
2022/11/20 05:58:10;;;;;;;;;;;19.30;65.60;;;;;;5031972;28;2166;-70
2022/11/20 06:00:35;;;;;;;;;;;19.30;65.50;;;;;;5036800;28;1446;-70
2022/11/20 06:03:01;;;;;;;;;;;19.30;65.50;;;;;;5041499;28;804;-69
2022/11/20 06:05:27;;;;;;;;;;;19.30;65.50;;;;;;5023858;28;861;-69
2022/11/20 06:07:52;;;;;;;;;;;19.30;65.40;;;;;;5009942;28;4638;-69
2022/11/20 06:10:17;;;;;;;;;;;19.30;65.40;;;;;;5018432;28;1051;-68
2022/11/20 06:12:43;;;;;;;;;;;19.30;65.40;;;;;;5038826;28;916;-68
2022/11/20 06:15:09;;;;;;;;;;;19.30;65.30;;;;;;5038917;28;1469;-68
2022/11/20 06:17:34;;;;;;;;;;;19.30;65.30;;;;;;5020177;28;1217;-68
2022/11/20 06:20:00;;;;;;;;;;;19.40;65.30;;;;;;5036007;28;932;-69
2022/11/20 06:22:25;;;;;;;;;;;19.30;65.20;;;;;;5034571;28;1099;-67
2022/11/20 06:24:50;;;;;;;;;;;19.30;65.20;;;;;;5037498;28;826;-67
2022/11/20 06:27:16;;;;;;;;;;;19.30;65.20;;;;;;5039414;28;1269;-68
2022/11/20 06:29:41;;;;;;;;;;;19.40;65.30;;;;;;5042247;28;1906;-71
2022/11/20 06:32:07;;;;;;;;;;;19.40;65.20;;;;;;5041333;28;859;-70
2022/11/20 06:34:32;;;;;;;;;;;19.30;65.20;;;;;;5042075;28;785;-68
2022/11/20 06:36:58;;;;;;;;;;;19.40;65.30;;;;;;5041094;28;1263;-69
2022/11/20 06:39:23;;;;;;;;;;;19.30;65.20;;;;;;5039414;28;863;-67
2022/11/20 06:41:49;;;;;;;;;;;19.40;65.20;;;;;;5042694;28;927;-67
2022/11/20 06:44:14;;;;;;;;;;;19.30;65.20;;;;;;5042433;28;1370;-70
2022/11/20 06:46:40;;;;;;;;;;;19.30;65.20;;;;;;5037431;28;1284;-69
2022/11/20 06:49:05;;;;;;;;;;;19.30;65.20;;;;;;5041639;28;1968;-69
2022/11/20 06:51:31;;;;;;;;;;;19.30;65.20;;;;;;5038598;28;1158;-68
2022/11/20 06:53:56;;;;;;;;;;;19.40;65.30;;;;;;5037106;28;916;-68
2022/11/20 06:56:22;;;;;;;;;;;19.30;65.20;;;;;;5038631;28;1368;-69
2022/11/20 06:58:47;;;;;;;;;;;19.40;65.20;;;;;;5041419;28;1255;-71
2022/11/20 07:01:13;;;;;;;;;;;19.40;65.30;;;;;;5040683;28;879;-72
2022/11/20 07:03:39;;;;;;;;;;;19.30;65.20;;;;;;5041004;28;876;-67
2022/11/20 07:06:05;;;;;;;;;;;19.30;65.20;;;;;;5037992;28;879;-67
2022/11/20 07:08:30;;;;;;;;;;;19.30;65.20;;;;;;5039755;28;1977;-67
2022/11/20 07:10:59;;;;;;;;;;;19.30;65.20;;;;;;5039867;28;883;-67
2022/11/20 07:13:25;;;;;;;;;;;19.30;65.30;;;;;;5040124;28;1456;-67
2022/11/20 07:15:50;;;;;;;;;;;19.30;65.30;;;;;;5038826;28;912;-67
2022/11/20 07:18:16;;;;;;;;;;;19.30;65.30;;;;;;5041992;28;1375;-67
2022/11/20 07:20:41;;;;;;;;;;;19.30;65.30;;;;;;5039568;28;919;-67
2022/11/20 07:23:07;;;;;;;;;;;19.30;65.40;;;;;;5041312;28;938;-67
2022/11/20 07:25:32;;;;;;;;;;;19.30;65.50;;;;;;5034897;28;1425;-68
2022/11/20 07:27:58;;;;;;;;;;;19.30;65.40;;;;;;5035645;28;1913;-71
2022/11/20 07:30:23;;;;;;;;;;;19.30;65.40;;;;;;5040245;28;872;-68
2022/11/20 07:32:52;;;;;;;;;;;19.30;65.50;;;;;;5037844;28;955;-69
2022/11/20 07:35:18;;;;;;;;;;;19.30;65.60;;;;;;5019633;28;895;-69
2022/11/20 07:37:45;;;;;;;;;;;19.20;65.50;;;;;;5038568;28;1193;-69
2022/11/20 07:40:11;;;;;;;;;;;19.20;65.50;;;;;;5037178;28;918;-69
2022/11/20 07:42:37;;;;;;;;;;;19.20;65.50;;;;;;5042313;28;1243;-69
2022/11/20 07:45:02;;;;;;;;;;;19.20;65.60;;;;;;5043681;28;920;-68
2022/11/20 07:47:28;;;;;;;;;;;19.20;65.60;;;;;;5037972;28;1292;-68
2022/11/20 07:49:53;;;;;;;;;;;19.20;65.70;;;;;;5036803;28;1965;-68
2022/11/20 07:52:19;;;;;;;;;;;19.20;65.60;;;;;;5038789;28;1193;-68
2022/11/20 07:54:44;;;;;;;;;;;19.20;65.70;;;;;;5038784;28;2230;-68
2022/11/20 07:57:10;;;;;;;;;;;19.20;65.70;;;;;;5037303;28;2068;-69
2022/11/20 07:59:35;;;;;;;;;;;19.20;65.70;;;;;;5040558;28;2218;-69
2022/11/20 08:02:01;;;;;;;;;;;19.20;65.70;;;;;;5039591;28;2092;-69
2022/11/20 08:04:26;;;;;;;;;;;19.20;65.70;;;;;;5042512;28;2086;-70
2022/11/20 08:06:52;;;;;;;;;;;19.20;65.80;;;;;;5039590;28;1481;-67
2022/11/20 08:09:17;;;;;;;;;;;19.20;65.70;;;;;;5039163;28;1898;-67
2022/11/20 08:14:27;;;;;;;;;;;19.20;65.80;;;;;;5041904;28;1579;-68
2022/11/20 08:16:53;;;;;;;;;;;19.20;65.80;;;;;;5039364;28;1640;-70
2022/11/20 08:19:18;;;;;;;;;;;19.20;65.70;;;;;;5037595;28;1441;-69
2022/11/20 08:21:44;;;;;;;;;;;19.20;65.70;;;;;;5024093;28;1531;-68
2022/11/20 08:24:09;;;;;;;;;;;19.20;65.60;;;;;;5039433;28;1525;-68
2022/11/20 08:26:35;;;;;;;;;;;19.20;65.60;;;;;;5039954;28;1506;-68
2022/11/20 08:29:00;;;;;;;;;;;19.20;65.50;;;;;;5042221;28;1906;-70
2022/11/20 08:31:26;;;;;;;;;;;19.30;65.60;;;;;;5036655;28;2294;-70
2022/11/20 08:33:52;;;;;;;;;;;19.20;65.50;;;;;;5037788;28;1599;-69
2022/11/20 08:36:17;;;;;;;;;;;19.20;65.50;;;;;;5034069;28;1302;-69
2022/11/20 08:38:46;;;;;;;;;;;19.30;65.50;;;;;;5040291;28;1266;-68
2022/11/20 08:41:24;;;;;;;;;;;19.30;65.50;;;;;;5043336;28;1411;-68
2022/11/20 08:43:59;;;;;;;;;;;19.30;65.40;;;;;;5038052;28;1335;-69
2022/11/20 08:46:25;;;;;;;;;;;19.30;65.40;;;;;;5039164;28;1507;-69
2022/11/20 08:48:50;;;;;;;;;;;19.30;65.30;;;;;;5021376;28;1942;-68
2022/11/20 08:51:16;;;;;;;;;;;19.40;65.30;;;;;;5041814;28;1310;-68
2022/11/20 08:53:41;;;;;;;;;;;19.30;65.20;;;;;;5039118;28;805;-68
2022/11/20 08:56:07;;;;;;;;;;;19.30;65.20;;;;;;5022286;28;878;-68
2022/11/20 08:58:32;;;;;;;;;;;19.40;65.20;;;;;;5039053;28;1364;-68
2022/11/20 09:00:58;;;;;;;;;;;19.30;65.10;;;;;;5039171;28;863;-68
2022/11/20 09:03:23;;;;;;;;;;;19.40;65.10;;;;;;5038937;28;912;-68
2022/11/20 09:05:49;;;;;;;;;;;19.40;65.10;;;;;;5037994;28;860;-69
2022/11/20 09:08:14;;;;;;;;;;;19.40;65.10;;;;;;5037455;28;1930;-68
2022/11/20 09:10:40;;;;;;;;;;;19.40;65.10;;;;;;5036000;28;861;-68
2022/11/20 09:13:05;;;;;;;;;;;19.40;65.10;;;;;;5037978;28;1073;-68
2022/11/20 09:15:31;;;;;;;;;;;19.40;65.00;;;;;;5037330;28;1534;-68
2022/11/20 09:17:57;;;;;;;;;;;19.40;65.00;;;;;;5038328;28;1370;-68
2022/11/20 09:20:23;;;;;;;;;;;19.40;65.00;;;;;;5019378;28;927;-69
2022/11/20 09:22:49;;;;;;;;;;;19.40;65.00;;;;;;5035560;28;831;-68
2022/11/20 09:25:14;;;;;;;;;;;19.40;65.00;;;;;;5038105;28;899;-68
2022/11/20 09:27:43;;;;;;;;;;;19.40;64.90;;;;;;5034772;28;1288;-68
2022/11/20 09:30:09;;;;;;;;;;;19.40;64.90;;;;;;5034901;28;1907;-68
2022/11/20 09:32:34;;;;;;;;;;;19.40;64.90;;;;;;5041559;28;918;-68
2022/11/20 09:35:00;;;;;;;;;;;19.40;65.70;;;;;;5038893;28;886;-69
2022/11/20 09:37:25;;;;;;;;;;;19.40;64.90;;;;;;5025707;28;4887;-69
2022/11/20 09:39:50;;;;;;;;;;;19.40;64.90;;;;;;5032801;28;4036;-69
2022/11/20 09:42:22;;;;;;;;;;;19.40;64.90;;;;;;5030642;28;4565;-69
2022/11/20 09:44:53;;;;;;;;;;;19.40;64.90;;;;;;5025063;28;4609;-69
2022/11/20 09:47:19;;;;;;;;;;;19.40;64.80;;;;;;5032169;28;4389;-69
2022/11/20 09:49:47;;;;;;;;;;;19.50;64.90;;;;;;5035260;28;1906;-68
2022/11/20 09:52:22;;;;;;;;;;;19.40;64.80;;;;;;5040133;28;845;-69
2022/11/20 09:54:47;;;;;;;;;;;19.40;64.80;;;;;;5023398;28;1299;-69
2022/11/20 09:57:14;;;;;;;;;;;19.50;64.90;;;;;;5034324;28;4539;-69
2022/11/20 10:00:06;;;;;;;;;;;19.40;64.80;;;;;;5021507;28;899;-69
2022/11/20 10:02:31;;;;;;;;;;;19.40;64.80;;;;;;5037006;28;1145;-68
2022/11/20 10:05:09;;;;;;;;;;;19.50;64.90;;;;;;5043506;28;858;-68
2022/11/20 10:07:42;;;;;;;;;;;19.40;64.80;;;;;;5040622;28;1843;-68
2022/11/20 10:10:15;;;;;;;;;;;19.50;64.90;;;;;;5040415;28;1979;-68
2022/11/20 10:12:43;;;;;;;;;;;19.40;64.80;;;;;;5042407;28;871;-68
2022/11/20 10:15:27;;;;;;;;;;;19.40;64.80;;;;;;5043911;28;1745;-69
2022/11/20 10:17:53;;;;;;;;;;;19.40;64.80;;;;;;5041877;28;1398;-68
2022/11/20 10:20:36;;;;;;;;;;;19.50;64.90;;;;;;5044100;28;1369;-68
2022/11/20 10:23:21;;;;;;;;;;;19.40;64.80;;;;;;5040699;28;1401;-68
2022/11/20 10:25:59;;;;;;;;;;;19.40;64.80;;;;;;5031831;28;1510;-69
2022/11/20 10:28:44;;;;;;;;;;;19.50;64.90;;;;;;5023378;28;1973;-68
2022/11/20 10:31:11;;;;;;;;;;;19.40;64.80;;;;;;5044082;28;1399;-67
2022/11/20 10:33:38;;;;;;;;;;;19.40;64.80;;;;;;5040710;28;1359;-68
2022/11/20 10:36:09;;;;;;;;;;;19.50;64.90;;;;;;5020198;28;5396;-68
2022/11/20 10:38:39;;;;;;;;;;;19.40;64.80;;;;;;5040543;28;4081;-68
2022/11/20 10:43:49;;;;;;;;;;;19.40;64.80;;;;;;5039371;28;790;-68
2022/11/20 10:46:15;;;;;;;;;;;19.50;64.90;;;;;;5022167;28;864;-68
2022/11/20 10:48:41;;;;;;;;;;;19.40;64.90;;;;;;5026333;28;1959;-69
2022/11/20 10:51:16;;;;;;;;;;;19.40;64.90;;;;;;5026236;28;1726;-69
2022/11/20 10:53:58;;;;;;;;;;;19.40;64.80;;;;;;5042935;28;884;-68
2022/11/20 10:56:25;;;;;;;;;;;19.40;64.80;;;;;;5040128;28;1331;-66
2022/11/20 10:59:03;;;;;;;;;;;19.40;64.80;;;;;;5040807;28;1300;-66
2022/11/20 11:01:28;;;;;;;;;;;19.40;64.90;;;;;;5012765;28;2111;-67
2022/11/20 11:03:54;;;;;;;;;;;19.40;64.80;;;;;;5041933;28;1807;-69
2022/11/20 11:06:34;;;;;;;;;;;19.40;64.90;;;;;;5042850;28;1440;-68
2022/11/20 11:09:00;;;;;;;;;;;19.40;64.80;;;;;;5023286;28;1902;-68
2022/11/20 11:11:27;;;;;;;;;;;19.40;64.90;;;;;;5030203;28;1462;-68
2022/11/20 11:13:53;;;;;;;;;;;19.40;64.90;;;;;;5043474;28;1316;-70
2022/11/20 11:16:22;;;;;;;;;;;19.40;64.80;;;;;;5043861;28;1438;-68
2022/11/20 11:18:48;;;;;;;;;;;19.40;64.90;;;;;;5040475;28;1223;-68
2022/11/20 11:21:13;;;;;;;;;;;19.40;64.90;;;;;;5024855;28;868;-68
2022/11/20 11:23:39;;;;;;;;;;;19.40;64.90;;;;;;5039660;28;1426;-68
2022/11/20 11:26:06;;;;;;;;;;;19.40;64.90;;;;;;5040656;28;994;-69
2022/11/20 11:28:31;;;;;;;;;;;19.40;64.90;;;;;;5039517;28;1902;-68
2022/11/20 11:30:57;;;;;;;;;;;19.40;64.90;;;;;;5038469;28;869;-68
2022/11/20 11:33:26;;;;;;;;;;;19.40;64.90;;;;;;5020843;28;859;-69
2022/11/20 11:35:52;;;;;;;;;;;19.40;64.90;;;;;;5039342;28;840;-68
2022/11/20 11:38:22;;;;;;;;;;;19.40;64.90;;;;;;5026203;28;1342;-68
2022/11/20 11:40:47;;;;;;;;;;;19.40;64.90;;;;;;5026049;28;844;-68
2022/11/20 11:46:01;;;;;;;;;;;19.40;64.90;;;;;;5039944;28;811;-68
2022/11/20 11:48:26;;;;;;;;;;;19.40;64.90;;;;;;5036998;28;2425;-69
2022/11/20 11:50:52;;;;;;;;;;;19.40;64.90;;;;;;5040248;28;805;-68
2022/11/20 11:53:18;;;;;;;;;;;19.40;64.90;;;;;;5039529;28;815;-68
2022/11/20 11:55:47;;;;;;;;;;;19.40;65.00;;;;;;5024309;28;873;-68
2022/11/20 11:58:16;;;;;;;;;;;19.40;65.00;;;;;;5024952;28;1288;-68
2022/11/20 12:00:45;;;;;;;;;;;19.40;64.90;;;;;;5041406;28;1003;-68
2022/11/20 12:03:32;;;;;;;;;;;19.40;64.90;;;;;;5023240;28;1374;-68
2022/11/20 12:05:59;;;;;;;;;;;19.40;65.00;;;;;;5039784;28;828;-69
2022/11/20 12:08:32;;;;;;;;;;;19.40;65.00;;;;;;5038180;28;1903;-68
2022/11/20 12:11:10;;;;;;;;;;;19.40;65.00;;;;;;5040485;28;942;-68
2022/11/20 12:13:41;;;;;;;;;;;19.40;64.90;;;;;;5038978;28;1225;-68
2022/11/20 12:16:07;;;;;;;;;;;19.40;65.00;;;;;;5038226;28;891;-69
2022/11/20 12:18:33;;;;;;;;;;;19.40;65.00;;;;;;5038024;28;1654;-69
2022/11/20 12:20:58;;;;;;;;;;;19.40;65.00;;;;;;5042146;28;2242;-69
2022/11/20 12:23:28;;;;;;;;;;;19.40;65.00;;;;;;5038242;28;1970;-68
2022/11/20 12:25:54;;;;;;;;;;;19.40;65.00;;;;;;5026010;28;1455;-69
2022/11/20 12:28:26;;;;;;;;;;;19.40;65.00;;;;;;5023662;28;1910;-69
2022/11/20 12:31:00;;;;;;;;;;;19.40;65.00;;;;;;5041400;28;1129;-69
2022/11/20 12:33:36;;;;;;;;;;;19.40;64.90;;;;;;5036781;28;916;-68
2022/11/20 12:36:13;;;;;;;;;;;19.40;64.90;;;;;;5038937;28;794;-68
2022/11/20 12:38:38;;;;;;;;;;;19.40;64.90;;;;;;5036355;28;1358;-68
2022/11/20 12:41:10;;;;;;;;;;;19.40;64.90;;;;;;5039299;28;1684;-69
2022/11/20 12:46:35;;;;;;;;;;;19.40;64.90;;;;;;5038325;28;1232;-69
2022/11/20 12:49:00;;;;;;;;;;;19.40;64.80;;;;;;5029371;28;1956;-69
2022/11/20 12:51:39;;;;;;;;;;;19.40;64.80;;;;;;5041404;28;912;-68
2022/11/20 12:54:20;;;;;;;;;;;19.40;64.80;;;;;;5024088;28;1165;-69
2022/11/20 12:57:04;;;;;;;;;;;19.40;64.80;;;;;;5038944;28;1213;-68
2022/11/20 12:59:36;;;;;;;;;;;19.40;64.90;;;;;;5039658;28;982;-69
2022/11/20 13:02:36;;;;;;;;;;;19.40;64.90;;;;;;5038496;28;1271;-67
2022/11/20 13:05:02;;;;;;;;;;;19.40;64.90;;;;;;4988938;28;1362;-69
2022/11/20 13:07:27;;;;;;;;;;;19.40;65.00;;;;;;5027254;28;1595;-68
2022/11/20 13:09:53;;;;;;;;;;;19.40;65.00;;;;;;5026348;28;1922;-69
2022/11/20 13:12:38;;;;;;;;;;;19.30;65.00;;;;;;5036020;28;1651;-67
2022/11/20 13:15:18;;;;;;;;;;;19.40;65.10;;;;;;5037100;28;1578;-69
2022/11/20 13:17:44;;;;;;;;;;;19.40;65.10;;;;;;5036536;28;1308;-69
2022/11/20 13:20:13;;;;;;;;;;;19.40;65.10;;;;;;5038800;28;890;-68
2022/11/20 13:22:49;;;;;;;;;;;19.30;65.10;;;;;;5036967;28;931;-71
2022/11/20 13:25:44;;;;;;;;;;;19.30;65.10;;;;;;5037391;28;832;-68
2022/11/20 13:28:09;;;;;;;;;;;19.30;65.20;;;;;;5008300;28;2036;-69
2022/11/20 13:30:34;;;;;;;;;;;19.30;65.20;;;;;;5038801;28;1320;-72
2022/11/20 13:33:07;;;;;;;;;;;19.30;65.30;;;;;;5019304;28;1315;-69
2022/11/20 13:35:36;;;;;;;;;;;19.30;65.30;;;;;;5021495;28;1345;-71
2022/11/20 13:38:12;;;;;;;;;;;19.30;65.30;;;;;;5039707;28;1357;-69
2022/11/20 13:40:38;;;;;;;;;;;19.30;65.40;;;;;;5023508;28;1269;-70
2022/11/20 13:43:07;;;;;;;;;;;19.30;65.40;;;;;;5040428;28;1248;-69
2022/11/20 13:45:33;;;;;;;;;;;19.20;65.40;;;;;;5022648;28;1473;-68
2022/11/20 13:48:01;;;;;;;;;;;19.20;65.40;;;;;;5036030;28;1898;-68
2022/11/20 13:50:41;;;;;;;;;;;19.20;65.50;;;;;;5037876;28;1527;-68
2022/11/20 13:53:11;;;;;;;;;;;19.20;65.50;;;;;;5016297;28;979;-69
2022/11/20 13:55:46;;;;;;;;;;;19.20;65.50;;;;;;5038256;28;1373;-69
2022/11/20 13:58:18;;;;;;;;;;;19.20;65.50;;;;;;5023785;28;1268;-69
2022/11/20 14:01:03;;;;;;;;;;;19.20;65.50;;;;;;5038978;28;899;-69
2022/11/20 14:03:29;;;;;;;;;;;19.20;65.60;;;;;;5027352;28;1293;-69
2022/11/20 14:05:55;;;;;;;;;;;19.20;65.60;;;;;;5038089;28;868;-69
2022/11/20 14:08:24;;;;;;;;;;;19.20;65.70;;;;;;5020881;28;1898;-69
2022/11/20 14:10:49;;;;;;;;;;;19.20;65.70;;;;;;5018311;28;863;-68
2022/11/20 14:13:15;;;;;;;;;;;19.20;65.70;;;;;;5040670;28;1010;-69
2022/11/20 14:15:42;;;;;;;;;;;19.20;65.80;;;;;;5036838;28;1469;-69
2022/11/20 14:18:15;;;;;;;;;;;19.10;65.70;;;;;;5037254;28;1331;-69
2022/11/20 14:20:40;;;;;;;;;;;19.10;65.80;;;;;;5039321;28;2093;-70
2022/11/20 14:23:07;;;;;;;;;;;19.10;65.80;;;;;;5037822;28;1382;-69
2022/11/20 14:25:33;;;;;;;;;;;19.10;65.80;;;;;;5029044;28;1347;-69
2022/11/20 14:27:59;;;;;;;;;;;19.10;65.80;;;;;;5039224;28;1964;-69
2022/11/20 14:30:25;;;;;;;;;;;19.10;65.90;;;;;;5038519;28;978;-70
2022/11/20 14:32:51;;;;;;;;;;;19.10;65.90;;;;;;5034774;28;933;-69
2022/11/20 14:35:18;;;;;;;;;;;19.10;65.90;;;;;;5036930;28;911;-69
2022/11/20 14:37:44;;;;;;;;;;;19.10;66.00;;;;;;5018738;28;1723;-69
2022/11/20 14:40:22;;;;;;;;;;;19.10;66.00;;;;;;5039428;28;1470;-69
2022/11/20 14:42:48;;;;;;;;;;;19.10;66.00;;;;;;5039814;28;848;-69
2022/11/20 14:45:13;;;;;;;;;;;19.10;66.10;;;;;;5038673;28;1215;-69
2022/11/20 14:47:39;;;;;;;;;;;19.10;66.10;;;;;;5021487;28;1296;-69
2022/11/20 14:50:07;;;;;;;;;;;19.10;66.10;;;;;;5036562;28;1918;-69